Time;durP1;ratioP1;P1;durP2;ratioP2;P2;SDS_P1;SDS_P2;PMS_P1;PMS_P2;Temp;Humidity;BMP_temperature;BMP_pressure;BME280_temperature;BME280_humidity;BME280_pressure;Samples;Min_cycle;Max_cycle;Signal;HPM_P1;HPM_P2
2023/08/31 00:00:15;;;;;;;3.90;1.20;;;12.60;99.90;;;;;;5021858;28;20421;-62
2023/08/31 00:02:41;;;;;;;2.37;1.17;;;12.60;99.90;;;;;;5049007;28;20412;-62
2023/08/31 00:05:07;;;;;;;2.93;1.20;;;12.50;99.90;;;;;;5050631;28;20412;-62
2023/08/31 00:07:33;;;;;;;2.90;1.60;;;12.50;99.90;;;;;;5032524;28;20258;-62
2023/08/31 00:09:58;;;;;;;4.20;1.47;;;12.50;99.90;;;;;;5033571;28;20504;-62
2023/08/31 00:12:24;;;;;;;2.03;0.90;;;12.50;99.90;;;;;;5048978;28;20497;-62
2023/08/31 00:14:51;;;;;;;2.57;1.50;;;12.50;99.90;;;;;;5050468;28;20182;-62
2023/08/31 00:17:17;;;;;;;2.77;1.30;;;12.50;99.90;;;;;;5050248;28;20777;-62
2023/08/31 00:19:43;;;;;;;2.77;1.10;;;12.30;99.90;;;;;;5050947;28;20182;-62
2023/08/31 00:22:09;;;;;;;3.93;1.80;;;12.40;99.90;;;;;;5050520;28;20927;-62
2023/08/31 00:24:36;;;;;;;4.70;1.50;;;12.30;99.90;;;;;;5048649;28;20464;-62
2023/08/31 00:27:03;;;;;;;2.53;1.27;;;12.30;99.90;;;;;;5033431;28;20272;-62
2023/08/31 00:29:29;;;;;;;4.40;1.67;;;12.30;99.90;;;;;;5034663;28;20933;-62
2023/08/31 00:31:55;;;;;;;6.63;1.40;;;12.40;99.90;;;;;;5048895;28;20424;-62
2023/08/31 00:34:21;;;;;;;2.80;1.40;;;12.30;99.90;;;;;;5041791;28;20425;-62
2023/08/31 00:36:48;;;;;;;2.40;1.33;;;12.40;99.90;;;;;;5043715;28;20970;-62
2023/08/31 00:39:14;;;;;;;3.40;1.87;;;12.30;99.90;;;;;;5039651;28;20453;-62
2023/08/31 00:41:40;;;;;;;3.23;1.33;;;12.30;99.90;;;;;;5035039;28;20440;-62
2023/08/31 00:44:06;;;;;;;3.97;1.77;;;12.30;99.90;;;;;;5038360;28;20421;-62
2023/08/31 00:46:32;;;;;;;1.53;0.87;;;12.30;99.90;;;;;;5034957;28;21022;-62
2023/08/31 00:48:59;;;;;;;5.33;1.43;;;12.30;99.90;;;;;;5050501;28;20431;-62
2023/08/31 00:51:25;;;;;;;2.30;1.30;;;12.30;99.90;;;;;;5050439;28;20881;-61
2023/08/31 00:53:54;;;;;;;3.27;1.60;;;12.20;99.90;;;;;;5036693;28;21015;-61
2023/08/31 00:56:20;;;;;;;2.60;1.00;;;12.10;99.90;;;;;;5049579;28;20424;-61
2023/08/31 00:58:46;;;;;;;1.50;0.90;;;12.10;99.90;;;;;;5041096;28;20431;-61
2023/08/31 01:01:35;;;;;;;3.57;1.37;;;12.10;99.90;;;;;;5043025;28;20209;-62
2023/08/31 01:04:13;;;;;;;4.83;1.70;;;12.10;99.90;;;;;;5043281;28;20916;-62
2023/08/31 01:06:55;;;;;;;3.00;1.67;;;12.10;99.90;;;;;;5041165;28;20988;-62
2023/08/31 01:09:23;;;;;;;3.10;1.57;;;12.10;99.90;;;;;;5046002;28;20425;-62
2023/08/31 01:11:58;;;;;;;2.07;1.00;;;12.10;99.90;;;;;;5058783;28;20424;-62
2023/08/31 01:14:27;;;;;;;1.87;1.07;;;12.10;99.90;;;;;;5049709;28;20407;-62
2023/08/31 01:16:55;;;;;;;4.70;1.80;;;12.00;99.90;;;;;;5047851;28;20432;-62
2023/08/31 01:19:50;;;;;;;2.77;1.80;;;12.00;99.90;;;;;;5038917;28;20507;-62
2023/08/31 01:22:30;;;;;;;2.07;1.40;;;12.00;99.90;;;;;;5036752;28;20452;-62
2023/08/31 01:24:58;;;;;;;2.63;1.77;;;12.00;99.90;;;;;;5049400;28;20805;-62
2023/08/31 01:27:23;;;;;;;3.07;1.53;;;11.80;99.90;;;;;;5033233;28;20559;-62
2023/08/31 01:29:49;;;;;;;3.97;1.80;;;12.00;99.90;;;;;;5039780;28;20508;-62
2023/08/31 01:32:15;;;;;;;3.37;1.50;;;11.90;99.90;;;;;;5053487;28;20197;-62
2023/08/31 01:34:41;;;;;;;6.70;1.67;;;11.90;99.90;;;;;;5039881;28;20417;-61
2023/08/31 01:37:19;;;;;;;3.73;1.80;;;11.90;99.90;;;;;;5053560;28;20192;-61
2023/08/31 01:40:09;;;;;;;2.80;1.60;;;11.80;99.90;;;;;;5039479;28;20374;-61
2023/08/31 01:42:35;;;;;;;3.67;1.43;;;11.90;99.90;;;;;;5053601;28;20424;-62
2023/08/31 01:45:01;;;;;;;4.63;2.00;;;11.80;99.90;;;;;;5050479;28;20489;-62
2023/08/31 01:47:27;;;;;;;2.30;1.70;;;11.80;99.90;;;;;;5045673;28;20554;-62
2023/08/31 01:49:53;;;;;;;3.13;1.37;;;11.80;99.90;;;;;;5040025;28;20773;-61
2023/08/31 01:52:19;;;;;;;3.00;1.70;;;11.80;99.90;;;;;;5052774;28;20416;-62
2023/08/31 01:54:44;;;;;;;4.87;1.90;;;11.80;99.90;;;;;;5036150;28;20178;-62
2023/08/31 01:57:10;;;;;;;2.83;1.30;;;11.80;99.90;;;;;;5045204;28;20198;-62
2023/08/31 01:59:35;;;;;;;2.50;1.63;;;11.80;99.90;;;;;;5036880;28;20580;-62
2023/08/31 02:02:02;;;;;;;3.93;2.00;;;11.70;99.90;;;;;;5045882;28;20667;-62
2023/08/31 02:04:27;;;;;;;4.13;2.07;;;11.70;99.90;;;;;;5052440;28;20203;-62
2023/08/31 02:06:53;;;;;;;4.57;2.07;;;11.70;99.90;;;;;;5052436;28;21026;-62
2023/08/31 02:09:18;;;;;;;3.73;1.87;;;11.70;99.90;;;;;;5049453;28;20589;-62
2023/08/31 02:11:44;;;;;;;8.70;2.50;;;11.70;99.90;;;;;;5034518;28;20214;-62
2023/08/31 02:14:10;;;;;;;4.13;2.07;;;11.70;99.90;;;;;;5032258;28;20178;-62
2023/08/31 02:16:35;;;;;;;4.00;2.30;;;11.60;99.90;;;;;;5037633;28;20190;-62
2023/08/31 02:19:01;;;;;;;6.13;2.30;;;11.60;99.90;;;;;;5050782;28;20653;-62
2023/08/31 02:21:26;;;;;;;3.77;2.20;;;11.60;99.90;;;;;;5052379;28;20189;-62
2023/08/31 02:23:52;;;;;;;3.87;2.27;;;11.70;99.90;;;;;;5052328;28;20699;-62
2023/08/31 02:26:17;;;;;;;3.90;2.30;;;11.70;99.90;;;;;;5040054;28;20217;-62
2023/08/31 02:28:43;;;;;;;3.40;2.17;;;11.60;99.90;;;;;;5032449;28;20191;-62
2023/08/31 02:31:11;;;;;;;3.40;1.57;;;11.60;99.90;;;;;;5042927;28;20197;-62
2023/08/31 02:33:37;;;;;;;7.27;2.10;;;11.70;99.90;;;;;;5050993;28;20187;-62
2023/08/31 02:36:03;;;;;;;5.23;2.80;;;11.70;99.90;;;;;;5044830;28;20419;-61
2023/08/31 02:38:28;;;;;;;12.63;2.97;;;11.70;99.90;;;;;;5045762;28;20191;-62
2023/08/31 02:40:54;;;;;;;6.47;2.00;;;11.70;99.90;;;;;;5044489;28;20773;-62
2023/08/31 02:43:19;;;;;;;6.40;2.83;;;11.60;99.90;;;;;;5047956;28;20189;-62
2023/08/31 02:45:45;;;;;;;4.60;2.47;;;11.60;99.90;;;;;;5043540;28;20707;-62
2023/08/31 02:48:11;;;;;;;7.20;2.90;;;11.60;99.90;;;;;;5045609;28;20183;-62
2023/08/31 02:50:38;;;;;;;4.20;2.43;;;11.50;99.90;;;;;;5032159;28;20217;-62
2023/08/31 02:53:03;;;;;;;5.30;2.80;;;11.50;99.90;;;;;;5044826;28;20340;-62
2023/08/31 02:55:31;;;;;;;7.10;2.40;;;11.50;99.90;;;;;;5037720;28;20457;-61
2023/08/31 02:57:57;;;;;;;4.17;2.63;;;11.50;99.90;;;;;;5035654;28;20605;-61
2023/08/31 03:00:22;;;;;;;3.23;2.17;;;11.50;99.90;;;;;;5044736;28;20900;-61
2023/08/31 03:02:50;;;;;;;4.50;2.47;;;11.50;99.90;;;;;;5051293;28;20236;-61
2023/08/31 03:05:16;;;;;;;2.83;2.00;;;11.40;99.90;;;;;;5051434;28;20197;-61
2023/08/31 03:07:41;;;;;;;3.87;2.10;;;11.40;99.90;;;;;;5038145;28;20459;-61
2023/08/31 03:10:07;;;;;;;6.00;3.67;;;11.30;99.90;;;;;;5041506;28;20206;-61
2023/08/31 03:12:33;;;;;;;5.57;3.20;;;11.40;99.90;;;;;;5050644;28;20181;-61
2023/08/31 03:14:58;;;;;;;9.63;2.57;;;11.30;99.90;;;;;;5049751;28;20248;-61
2023/08/31 03:17:24;;;;;;;5.47;2.30;;;11.40;99.90;;;;;;5051093;28;20217;-61
2023/08/31 03:19:50;;;;;;;5.63;3.17;;;11.40;99.90;;;;;;5050426;28;20231;-61
2023/08/31 03:22:15;;;;;;;6.17;2.87;;;11.40;99.90;;;;;;5050236;28;20510;-61
2023/08/31 03:24:41;;;;;;;5.50;2.07;;;11.40;99.90;;;;;;5051692;28;20352;-61
2023/08/31 03:27:07;;;;;;;4.97;2.70;;;11.40;99.90;;;;;;5032128;28;20206;-62
2023/08/31 03:29:34;;;;;;;4.97;2.37;;;11.30;99.90;;;;;;5036839;28;20636;-62
2023/08/31 03:32:01;;;;;;;7.93;2.40;;;11.40;99.90;;;;;;5049614;28;20896;-62
2023/08/31 03:34:30;;;;;;;3.30;2.23;;;11.40;99.90;;;;;;5043100;28;20456;-62
2023/08/31 03:36:57;;;;;;;3.50;2.50;;;11.40;99.90;;;;;;5050011;28;20876;-62
2023/08/31 03:39:23;;;;;;;7.40;3.70;;;11.30;99.90;;;;;;5047040;28;20421;-62
2023/08/31 03:41:49;;;;;;;7.03;3.43;;;11.40;99.90;;;;;;5049719;28;20447;-62
2023/08/31 03:44:15;;;;;;;5.90;3.20;;;11.30;99.90;;;;;;5050366;28;21074;-62
2023/08/31 03:46:40;;;;;;;5.23;3.03;;;11.40;99.90;;;;;;5050547;28;20658;-62
2023/08/31 03:49:06;;;;;;;4.83;2.87;;;11.50;99.90;;;;;;5050812;28;20189;-62
2023/08/31 03:51:31;;;;;;;3.83;2.53;;;11.60;99.90;;;;;;5050850;28;20189;-62
2023/08/31 03:53:57;;;;;;;6.77;2.87;;;11.60;99.90;;;;;;5035066;28;20190;-62
2023/08/31 03:56:23;;;;;;;4.67;2.90;;;11.60;99.90;;;;;;5043552;28;20181;-62
2023/08/31 03:58:48;;;;;;;4.23;2.13;;;11.70;99.90;;;;;;5041143;28;20194;-62
2023/08/31 04:01:14;;;;;;;4.57;2.77;;;11.60;99.90;;;;;;5039092;28;20611;-61
2023/08/31 04:03:42;;;;;;;8.00;3.30;;;11.60;99.90;;;;;;5030498;28;20190;-61
2023/08/31 04:06:07;;;;;;;5.80;2.80;;;11.70;99.90;;;;;;5036150;28;20209;-61
2023/08/31 04:08:33;;;;;;;6.70;2.43;;;11.60;99.90;;;;;;5050650;28;20420;-61
2023/08/31 04:10:59;;;;;;;5.00;2.47;;;11.60;99.90;;;;;;5034503;28;20537;-61
2023/08/31 04:13:24;;;;;;;7.17;2.97;;;11.70;99.90;;;;;;5050137;28;20193;-61
2023/08/31 04:15:52;;;;;;;4.77;2.53;;;11.70;99.90;;;;;;5042421;28;20307;-61
2023/08/31 04:18:17;;;;;;;3.27;2.20;;;11.70;99.90;;;;;;5034537;28;20225;-61
2023/08/31 04:20:52;;;;;;;6.87;3.07;;;11.50;99.90;;;;;;5028868;28;20483;-61
2023/08/31 04:23:18;;;;;;;7.63;2.63;;;11.60;99.90;;;;;;5042510;28;20193;-61
2023/08/31 04:25:45;;;;;;;3.40;1.70;;;11.50;99.90;;;;;;5030730;28;20496;-61
2023/08/31 04:28:10;;;;;;;10.10;2.87;;;11.50;99.90;;;;;;5031188;28;20460;-61
2023/08/31 04:30:36;;;;;;;6.10;2.60;;;11.50;99.90;;;;;;5041369;28;20432;-61
2023/08/31 04:33:04;;;;;;;12.13;3.00;;;11.50;99.90;;;;;;5037073;28;20237;-61
2023/08/31 04:35:31;;;;;;;4.47;2.87;;;11.50;99.90;;;;;;5041203;28;20212;-61
2023/08/31 04:37:57;;;;;;;6.13;2.40;;;11.30;99.90;;;;;;5050468;28;20435;-61
2023/08/31 04:40:23;;;;;;;5.67;2.47;;;11.40;99.90;;;;;;5044932;28;20767;-61
2023/08/31 04:42:48;;;;;;;8.07;3.03;;;11.40;99.90;;;;;;5049057;28;20435;-61
2023/08/31 04:45:14;;;;;;;5.17;2.57;;;11.40;99.90;;;;;;5049923;28;20744;-61
2023/08/31 04:47:40;;;;;;;9.27;2.57;;;11.40;99.90;;;;;;5049795;28;20217;-61
2023/08/31 04:50:06;;;;;;;5.50;2.60;;;11.40;99.90;;;;;;5050519;28;20181;-61
2023/08/31 04:52:32;;;;;;;3.87;2.27;;;11.50;99.90;;;;;;5047977;28;20259;-61
2023/08/31 04:54:58;;;;;;;8.30;3.40;;;11.40;99.90;;;;;;5036022;28;20451;-61
2023/08/31 04:57:24;;;;;;;7.30;2.80;;;11.30;99.90;;;;;;5045207;28;20897;-61
2023/08/31 04:59:49;;;;;;;5.13;3.10;;;11.40;99.90;;;;;;5040956;28;20622;-61
2023/08/31 05:02:15;;;;;;;4.37;2.83;;;11.40;99.90;;;;;;5053392;28;20435;-61
2023/08/31 05:04:41;;;;;;;7.50;2.53;;;11.50;99.90;;;;;;5044470;28;20201;-61
2023/08/31 05:07:07;;;;;;;8.43;2.67;;;11.50;99.90;;;;;;5046121;28;20339;-61
2023/08/31 05:09:34;;;;;;;4.67;2.20;;;11.50;99.90;;;;;;5037052;28;20265;-61
2023/08/31 05:12:02;;;;;;;3.93;2.50;;;11.50;99.90;;;;;;5048801;28;20822;-61
2023/08/31 05:14:28;;;;;;;5.70;2.87;;;11.60;99.90;;;;;;5045182;28;20490;-61
2023/08/31 05:16:54;;;;;;;4.20;3.00;;;11.60;99.90;;;;;;5048320;28;20478;-61
2023/08/31 05:19:19;;;;;;;6.50;2.60;;;11.70;99.90;;;;;;5053910;28;20189;-61
2023/08/31 05:21:46;;;;;;;4.40;2.40;;;11.70;99.90;;;;;;5040185;28;20194;-61
2023/08/31 05:24:11;;;;;;;8.20;3.00;;;11.70;99.90;;;;;;5053310;28;20212;-61
2023/08/31 05:26:38;;;;;;;6.90;3.30;;;11.70;99.90;;;;;;5038990;28;20822;-61
2023/08/31 05:29:05;;;;;;;5.00;3.03;;;11.70;99.90;;;;;;5037814;28;20193;-61
2023/08/31 05:31:30;;;;;;;5.57;3.47;;;11.80;99.90;;;;;;5048251;28;20421;-61
2023/08/31 05:33:56;;;;;;;4.57;2.77;;;11.90;99.90;;;;;;5053232;28;20507;-61
2023/08/31 05:36:22;;;;;;;4.33;2.17;;;11.90;99.90;;;;;;5039953;28;20214;-61
2023/08/31 05:38:47;;;;;;;4.97;2.50;;;12.00;99.90;;;;;;5045248;28;20661;-61
2023/08/31 05:41:13;;;;;;;4.73;2.20;;;12.10;99.90;;;;;;5047995;28;20244;-61
2023/08/31 05:43:41;;;;;;;5.10;2.40;;;12.20;99.90;;;;;;5051649;28;20194;-61
2023/08/31 05:46:08;;;;;;;10.67;2.67;;;12.20;99.90;;;;;;5052661;28;20554;-61
2023/08/31 05:48:34;;;;;;;8.20;2.47;;;12.30;99.90;;;;;;5044446;28;20467;-61
2023/08/31 05:50:59;;;;;;;4.10;2.60;;;12.20;99.90;;;;;;5030464;28;20425;-62
2023/08/31 05:53:25;;;;;;;2.90;2.13;;;12.20;99.90;;;;;;5029312;28;20512;-62
2023/08/31 05:55:51;;;;;;;5.70;2.63;;;12.30;99.90;;;;;;5039774;28;20194;-62
2023/08/31 05:58:16;;;;;;;2.80;1.67;;;12.30;99.90;;;;;;5033557;28;20194;-62
2023/08/31 06:00:42;;;;;;;4.93;2.50;;;12.30;99.90;;;;;;5032768;28;20560;-62
2023/08/31 06:03:07;;;;;;;3.23;2.07;;;12.30;99.90;;;;;;5041435;28;20185;-62
2023/08/31 06:05:33;;;;;;;4.37;2.30;;;12.30;99.90;;;;;;5030968;28;20251;-62
2023/08/31 06:07:59;;;;;;;7.13;2.50;;;12.30;99.90;;;;;;5018530;28;20193;-62
2023/08/31 06:10:25;;;;;;;4.17;2.80;;;12.40;99.90;;;;;;5027620;28;20425;-62
2023/08/31 06:12:50;;;;;;;5.93;2.83;;;12.40;99.90;;;;;;5023329;28;20733;-61
2023/08/31 06:15:17;;;;;;;8.40;2.73;;;12.40;99.90;;;;;;5028214;28;20220;-62
2023/08/31 06:17:43;;;;;;;4.27;2.30;;;12.40;99.90;;;;;;5028173;28;20225;-62
2023/08/31 06:20:09;;;;;;;4.70;2.70;;;12.40;99.90;;;;;;5016901;28;20536;-62
2023/08/31 06:22:35;;;;;;;8.83;2.47;;;12.40;99.90;;;;;;5021457;28;20465;-62
2023/08/31 06:25:02;;;;;;;4.30;2.00;;;12.40;99.90;;;;;;5023844;28;20564;-61
2023/08/31 06:27:28;;;;;;;5.93;2.37;;;12.50;99.90;;;;;;5030019;28;20217;-61
2023/08/31 06:29:54;;;;;;;8.17;1.93;;;12.50;99.90;;;;;;5029552;28;20424;-62
2023/08/31 06:32:19;;;;;;;5.63;2.20;;;12.50;99.90;;;;;;5011977;28;20262;-62
2023/08/31 06:34:45;;;;;;;2.73;1.53;;;12.60;99.90;;;;;;5019816;28;20190;-61
2023/08/31 06:37:11;;;;;;;3.87;2.10;;;12.60;99.90;;;;;;5021502;28;20274;-61
2023/08/31 06:39:37;;;;;;;3.67;1.97;;;12.70;99.90;;;;;;5028334;28;20504;-62
2023/08/31 06:42:03;;;;;;;4.13;2.40;;;12.80;99.90;;;;;;5025364;28;20182;-62
2023/08/31 06:44:29;;;;;;;5.47;2.00;;;13.00;99.90;;;;;;5029135;28;20226;-61
2023/08/31 06:46:55;;;;;;;7.00;2.43;;;13.00;99.90;;;;;;5013079;28;20516;-61
2023/08/31 06:49:23;;;;;;;5.13;2.23;;;13.10;99.90;;;;;;5026472;28;20779;-62
2023/08/31 06:51:48;;;;;;;17.77;2.57;;;13.20;99.90;;;;;;5029190;28;20626;-62
2023/08/31 06:54:14;;;;;;;2.90;2.00;;;13.30;99.90;;;;;;5023665;28;20498;-62
2023/08/31 06:56:39;;;;;;;6.10;2.20;;;13.50;99.90;;;;;;5023230;28;20239;-62
2023/08/31 06:59:05;;;;;;;4.03;1.50;;;13.60;99.90;;;;;;5021561;28;20628;-62
2023/08/31 07:01:32;;;;;;;3.80;1.60;;;13.80;99.90;;;;;;5019416;28;20517;-61
2023/08/31 07:03:58;;;;;;;3.23;2.00;;;14.00;99.90;;;;;;5021265;28;20417;-62
2023/08/31 07:06:24;;;;;;;2.13;1.27;;;14.10;99.90;;;;;;5027573;28;20925;-62
2023/08/31 07:08:50;;;;;;;6.80;2.67;;;14.20;99.90;;;;;;5029231;28;20475;-61
2023/08/31 07:11:17;;;;;;;3.40;1.80;;;14.40;99.90;;;;;;5022091;28;20725;-61
2023/08/31 07:13:43;;;;;;;10.23;1.67;;;14.50;99.90;;;;;;5024865;28;20191;-61
2023/08/31 07:16:08;;;;;;;3.43;1.93;;;15.00;99.90;;;;;;5027369;28;20447;-61
2023/08/31 07:18:35;;;;;;;5.07;1.43;;;15.40;99.90;;;;;;5026736;28;20191;-62
2023/08/31 07:21:00;;;;;;;3.07;1.40;;;15.70;99.90;;;;;;5030761;28;20210;-62
2023/08/31 07:23:26;;;;;;;2.10;1.20;;;16.00;99.90;;;;;;5026033;28;20914;-62
2023/08/31 07:25:51;;;;;;;5.43;1.37;;;16.10;99.90;;;;;;5021866;28;20249;-62
2023/08/31 07:28:17;;;;;;;2.63;1.50;;;16.60;99.90;;;;;;5031400;28;20191;-62
2023/08/31 07:30:43;;;;;;;4.20;1.67;;;17.50;99.90;;;;;;5023153;28;20687;-62
2023/08/31 07:33:09;;;;;;;6.23;1.50;;;17.80;99.90;;;;;;5029186;28;20170;-62
2023/08/31 07:35:35;;;;;;;3.73;1.03;;;17.80;99.90;;;;;;5028948;28;20425;-62
2023/08/31 07:38:00;;;;;;;2.20;1.20;;;18.10;99.90;;;;;;5023226;28;20245;-62
2023/08/31 07:40:26;;;;;;;2.10;1.20;;;18.30;99.90;;;;;;5014504;28;20198;-62
2023/08/31 07:42:52;;;;;;;5.50;1.37;;;18.30;99.90;;;;;;5011257;28;20191;-62
2023/08/31 07:45:17;;;;;;;3.50;1.23;;;18.70;99.90;;;;;;5019943;28;20654;-62
2023/08/31 07:47:44;;;;;;;4.10;1.70;;;18.60;99.90;;;;;;5026817;28;20218;-62
2023/08/31 07:50:10;;;;;;;2.30;0.97;;;18.80;99.90;;;;;;5019788;28;20316;-61
2023/08/31 07:52:37;;;;;;;3.80;1.87;;;18.80;99.90;;;;;;5018120;28;20475;-61
2023/08/31 07:55:03;;;;;;;6.50;1.87;;;18.90;99.90;;;;;;5024503;28;20409;-61
2023/08/31 07:57:29;;;;;;;2.60;1.13;;;19.30;99.90;;;;;;5014997;28;20422;-61
2023/08/31 07:59:54;;;;;;;2.50;0.90;;;19.70;99.90;;;;;;5020563;28;20433;-61
2023/08/31 08:02:20;;;;;;;2.47;1.10;;;19.40;99.90;;;;;;5028248;28;20186;-61
2023/08/31 08:04:46;;;;;;;3.60;0.70;;;19.60;99.90;;;;;;5017085;28;20547;-61
2023/08/31 08:07:12;;;;;;;2.83;1.23;;;19.70;98.70;;;;;;5028565;28;20241;-61
2023/08/31 08:09:37;;;;;;;8.73;1.60;;;20.00;99.40;;;;;;5019562;28;20182;-61
2023/08/31 08:12:03;;;;;;;3.60;1.17;;;20.20;99.20;;;;;;5030514;28;20627;-61
2023/08/31 08:14:29;;;;;;;2.70;1.37;;;20.40;98.20;;;;;;5030576;28;20191;-61
2023/08/31 08:16:55;;;;;;;2.37;1.20;;;20.20;98.80;;;;;;5027579;28;20487;-61
2023/08/31 08:19:24;;;;;;;4.33;1.60;;;20.30;97.90;;;;;;5045927;28;20541;-61
2023/08/31 08:21:50;;;;;;;8.50;2.10;;;20.20;97.50;;;;;;5014954;28;20191;-61
2023/08/31 08:24:16;;;;;;;3.70;1.63;;;20.50;96.80;;;;;;5024130;28;20494;-61
2023/08/31 08:26:42;;;;;;;3.30;1.13;;;20.30;96.10;;;;;;5029952;28;20921;-61
2023/08/31 08:29:07;;;;;;;4.53;1.40;;;20.30;97.10;;;;;;5030540;28;20190;-62
2023/08/31 08:31:33;;;;;;;6.60;1.13;;;20.40;96.00;;;;;;5026789;28;20182;-61
2023/08/31 08:33:58;;;;;;;2.63;1.20;;;20.60;94.10;;;;;;5012953;28;20238;-61
2023/08/31 08:36:24;;;;;;;4.43;2.23;;;20.70;93.90;;;;;;5030556;28;20181;-62
2023/08/31 08:38:50;;;;;;;2.00;0.87;;;20.50;94.30;;;;;;5014858;28;20190;-61
2023/08/31 08:41:19;;;;;;;2.00;0.90;;;19.90;95.50;;;;;;5020183;28;20209;-61
2023/08/31 08:43:46;;;;;;;1.97;0.90;;;19.80;95.50;;;;;;5033600;28;20223;-62
2023/08/31 08:46:12;;;;;;;2.80;1.13;;;19.80;95.50;;;;;;5019998;28;20465;-61
2023/08/31 08:48:39;;;;;;;5.93;1.60;;;19.80;94.40;;;;;;5033347;28;20447;-61
2023/08/31 08:51:05;;;;;;;3.97;1.30;;;19.70;93.70;;;;;;5049148;28;20190;-61
2023/08/31 08:53:31;;;;;;;3.60;1.63;;;19.10;94.60;;;;;;5033753;28;20424;-61
2023/08/31 08:55:57;;;;;;;10.00;1.17;;;18.70;95.70;;;;;;5024829;28;20447;-61
2023/08/31 08:58:23;;;;;;;3.33;1.03;;;19.10;94.70;;;;;;5031331;28;20236;-61
2023/08/31 09:00:50;;;;;;;2.63;1.00;;;18.70;93.30;;;;;;5033441;28;20425;-61
2023/08/31 09:03:16;;;;;;;5.50;1.53;;;18.40;94.20;;;;;;5032905;28;20193;-61
2023/08/31 09:05:41;;;;;;;6.00;1.13;;;18.30;94.20;;;;;;5028613;28;20429;-61
2023/08/31 09:08:15;;;;;;;2.30;1.03;;;18.60;92.60;;;;;;5014293;28;20298;-61
2023/08/31 09:10:43;;;;;;;2.50;1.17;;;18.80;93.70;;;;;;5030508;28;20304;-61
2023/08/31 09:13:19;;;;;;;8.63;1.23;;;18.60;93.70;;;;;;5033761;28;20432;-61
2023/08/31 09:15:47;;;;;;;3.50;1.47;;;18.40;93.50;;;;;;5016244;28;20426;-61
2023/08/31 09:18:28;;;;;;;3.03;1.30;;;18.20;93.10;;;;;;5024825;28;21066;-61
2023/08/31 09:20:58;;;;;;;6.90;1.53;;;18.20;92.60;;;;;;5027060;28;20424;-61
2023/08/31 09:23:25;;;;;;;11.07;1.50;;;18.10;92.30;;;;;;5018027;28;20417;-61
2023/08/31 09:25:55;;;;;;;6.63;1.47;;;18.00;92.30;;;;;;5020571;28;20547;-61
2023/08/31 09:28:23;;;;;;;2.60;1.10;;;17.80;93.30;;;;;;5030845;28;20453;-62
2023/08/31 09:30:50;;;;;;;3.17;1.30;;;17.70;91.80;;;;;;5022750;28;20446;-61
2023/08/31 09:33:18;;;;;;;3.10;1.23;;;17.70;92.50;;;;;;5028247;28;20425;-62
2023/08/31 09:36:02;;;;;;;8.50;1.30;;;17.60;93.80;;;;;;5033225;28;20417;-62
2023/08/31 09:38:28;;;;;;;2.40;1.10;;;17.40;92.90;;;;;;5027321;28;20432;-61
2023/08/31 09:41:06;;;;;;;3.57;1.70;;;17.50;93.00;;;;;;5027438;28;20453;-61
2023/08/31 09:43:32;;;;;;;4.73;1.13;;;17.40;94.30;;;;;;5025911;28;20702;-61
2023/08/31 09:45:59;;;;;;;2.13;0.97;;;17.30;92.70;;;;;;5029291;28;20558;-60
2023/08/31 09:48:26;;;;;;;4.90;1.37;;;17.30;93.50;;;;;;5031443;28;20209;-61
2023/08/31 09:50:52;;;;;;;5.73;1.20;;;17.20;92.60;;;;;;5032844;28;20421;-61
2023/08/31 09:53:20;;;;;;;2.07;0.87;;;17.20;92.20;;;;;;5029632;28;20472;-61
2023/08/31 09:55:50;;;;;;;3.87;1.00;;;17.10;92.60;;;;;;5030561;28;20186;-61
2023/08/31 09:58:19;;;;;;;4.43;1.60;;;16.90;94.00;;;;;;5022396;28;20423;-61
2023/08/31 10:00:46;;;;;;;6.27;1.37;;;16.90;94.10;;;;;;5023224;28;20421;-61
2023/08/31 10:03:15;;;;;;;3.17;1.30;;;17.00;93.90;;;;;;5032050;28;20440;-61
2023/08/31 10:05:42;;;;;;;3.93;1.30;;;17.00;93.60;;;;;;5028360;28;20844;-61
2023/08/31 10:08:08;;;;;;;1.60;0.70;;;17.20;94.10;;;;;;5030344;28;20465;-61
2023/08/31 10:10:35;;;;;;;14.37;2.17;;;17.40;94.60;;;;;;5031926;28;20459;-61
2023/08/31 10:13:02;;;;;;;5.60;1.63;;;17.80;93.00;;;;;;5022891;28;20191;-61
2023/08/31 10:15:33;;;;;;;3.10;1.43;;;17.90;92.60;;;;;;5025282;28;20508;-61
2023/08/31 10:18:00;;;;;;;3.77;1.13;;;17.90;92.50;;;;;;5012684;28;20470;-61
2023/08/31 10:20:28;;;;;;;2.93;1.67;;;17.90;93.70;;;;;;5030139;28;20891;-61
2023/08/31 10:22:57;;;;;;;1.87;1.03;;;17.80;93.20;;;;;;5021514;28;20887;-60
2023/08/31 10:25:23;;;;;;;3.57;1.40;;;17.60;92.00;;;;;;5028899;28;20432;-61
2023/08/31 10:27:52;;;;;;;3.23;1.73;;;17.30;92.20;;;;;;5031958;28;20469;-61
2023/08/31 10:30:26;;;;;;;6.90;1.13;;;17.30;93.30;;;;;;5027909;28;20426;-61
2023/08/31 10:33:10;;;;;;;4.23;1.53;;;17.50;93.60;;;;;;5011946;28;20460;-61
2023/08/31 10:35:47;;;;;;;3.27;1.47;;;17.70;93.10;;;;;;5029702;28;20413;-61
2023/08/31 10:38:14;;;;;;;6.70;1.50;;;17.60;93.70;;;;;;5016486;28;20520;-61
2023/08/31 10:40:39;;;;;;;3.83;1.43;;;17.60;95.00;;;;;;5028699;28;20449;-61
2023/08/31 10:43:15;;;;;;;6.57;2.50;;;17.70;94.00;;;;;;5030975;28;20405;-61
2023/08/31 10:45:44;;;;;;;9.60;2.37;;;17.80;93.70;;;;;;5029240;28;20186;-61
2023/08/31 10:48:10;;;;;;;2.87;1.13;;;17.70;93.80;;;;;;5019002;28;20417;-61
2023/08/31 10:50:41;;;;;;;3.97;1.57;;;17.60;92.80;;;;;;5030656;28;20413;-61
2023/08/31 10:53:09;;;;;;;7.77;1.50;;;17.60;93.50;;;;;;5029964;28;20269;-61
2023/08/31 10:55:49;;;;;;;7.97;2.30;;;17.80;93.40;;;;;;5032157;28;20439;-61
2023/08/31 10:58:15;;;;;;;9.97;1.40;;;18.10;93.00;;;;;;5021265;28;20437;-61
2023/08/31 11:00:48;;;;;;;8.33;2.20;;;18.30;94.60;;;;;;5025125;28;20787;-61
2023/08/31 11:03:14;;;;;;;4.10;1.10;;;18.80;92.60;;;;;;5021154;28;20224;-61
2023/08/31 11:05:51;;;;;;;3.60;1.43;;;18.90;92.00;;;;;;5028371;28;20458;-61
2023/08/31 11:08:20;;;;;;;6.30;1.63;;;18.80;91.20;;;;;;5018411;28;20167;-61
2023/08/31 11:10:46;;;;;;;1.90;1.07;;;18.60;92.00;;;;;;5012685;28;20418;-61
2023/08/31 11:13:16;;;;;;;2.17;1.10;;;18.70;94.00;;;;;;5020125;28;20424;-61
2023/08/31 11:15:46;;;;;;;5.17;1.17;;;19.00;92.80;;;;;;5022631;28;20961;-61
2023/08/31 11:18:12;;;;;;;4.40;1.00;;;19.20;91.80;;;;;;5031941;28;20428;-61
2023/08/31 11:20:37;;;;;;;6.40;1.77;;;19.30;90.90;;;;;;5031170;28;20417;-61
2023/08/31 11:23:03;;;;;;;3.30;1.10;;;19.30;91.50;;;;;;5019888;28;20187;-61
2023/08/31 11:25:33;;;;;;;4.13;1.30;;;19.30;90.80;;;;;;5027598;28;20178;-61
2023/08/31 11:28:01;;;;;;;6.10;1.83;;;19.20;91.00;;;;;;5031240;28;20179;-61
2023/08/31 11:30:32;;;;;;;2.17;1.13;;;19.10;90.30;;;;;;5022476;28;20425;-61
2023/08/31 11:33:07;;;;;;;1.50;0.87;;;19.10;91.20;;;;;;5022386;28;20413;-61
2023/08/31 11:35:43;;;;;;;5.50;1.10;;;19.10;89.30;;;;;;5023150;28;20420;-61
2023/08/31 11:38:09;;;;;;;3.33;1.13;;;19.40;88.80;;;;;;5027890;28;20409;-61
2023/08/31 11:40:36;;;;;;;5.10;1.50;;;19.50;91.60;;;;;;5030165;28;20514;-61
2023/08/31 11:43:04;;;;;;;3.97;1.70;;;19.50;91.00;;;;;;5024236;28;20216;-61
2023/08/31 11:45:31;;;;;;;3.30;1.77;;;19.60;91.30;;;;;;5011820;28;20464;-61
2023/08/31 11:47:57;;;;;;;7.90;1.10;;;19.70;90.50;;;;;;5011374;28;20516;-62
2023/08/31 11:50:24;;;;;;;4.30;1.43;;;19.80;91.80;;;;;;5030405;28;20741;-62
2023/08/31 11:52:50;;;;;;;3.10;1.47;;;20.00;91.30;;;;;;5017080;28;20433;-61
2023/08/31 11:55:17;;;;;;;7.10;1.97;;;20.10;90.60;;;;;;5026134;28;20413;-61
2023/08/31 11:57:56;;;;;;;7.40;1.70;;;20.00;90.90;;;;;;5025435;28;20426;-61
2023/08/31 12:00:22;;;;;;;4.50;1.60;;;20.10;90.70;;;;;;5023763;28;20425;-61
2023/08/31 12:02:57;;;;;;;5.77;1.77;;;20.30;90.40;;;;;;5017260;28;20431;-61
2023/08/31 12:05:22;;;;;;;2.83;1.60;;;20.30;90.40;;;;;;5029529;28;20433;-61
2023/08/31 12:07:48;;;;;;;5.00;1.53;;;20.30;90.20;;;;;;5020164;28;20472;-61
2023/08/31 12:10:15;;;;;;;4.50;2.27;;;20.30;89.30;;;;;;5025740;28;20224;-61
2023/08/31 12:12:40;;;;;;;4.87;2.00;;;20.40;89.80;;;;;;5022147;28;20677;-61
2023/08/31 12:15:06;;;;;;;3.90;1.40;;;20.50;90.30;;;;;;5029921;28;20413;-61
2023/08/31 12:17:36;;;;;;;4.60;1.37;;;20.50;89.10;;;;;;5027573;28;20203;-61
2023/08/31 12:20:06;;;;;;;6.83;1.90;;;20.50;89.50;;;;;;5050120;28;20666;-61
2023/08/31 12:22:32;;;;;;;3.90;1.90;;;20.70;89.90;;;;;;5050630;28;20432;-61
2023/08/31 12:24:58;;;;;;;5.60;1.50;;;20.60;90.10;;;;;;5031628;28;20441;-61
2023/08/31 12:27:24;;;;;;;6.20;2.40;;;20.80;89.10;;;;;;5030098;28;20453;-61
2023/08/31 12:29:50;;;;;;;2.27;1.27;;;20.70;87.70;;;;;;5030642;28;20209;-61
2023/08/31 12:32:18;;;;;;;4.03;1.70;;;20.70;90.00;;;;;;5038244;28;20176;-61
2023/08/31 12:34:43;;;;;;;11.63;1.73;;;20.70;89.60;;;;;;5040984;28;20417;-61
2023/08/31 12:37:09;;;;;;;2.83;0.80;;;20.60;90.10;;;;;;5030258;28;20467;-61
2023/08/31 12:39:34;;;;;;;3.10;1.10;;;20.30;88.80;;;;;;5033692;28;20228;-61
2023/08/31 12:42:00;;;;;;;4.13;1.10;;;20.30;90.00;;;;;;5039655;28;20186;-61
2023/08/31 12:44:26;;;;;;;2.93;1.13;;;20.30;89.70;;;;;;5026941;28;20186;-61